»·PEaware :: N322T KLAX-KSAN

N322T :: KLAX-KSAN

FLIGHT INFORMATION

Flight Status: Arrived
Operator: Privately registered:
United States
More flights under this callsign
Pilot: Diederik K. (36441)
Aircraft: PIPER PA-28 CHEROKEE ARCHER
(PA28)
More flights by this aircraft type
Origin: KLAX Los Angeles Intl
United States
Destination: KSAN San Diego Intl-Lindbergh
United States
More flights between these airports :: More routes between these airports
Route:
File this flight plan on PilotEdge
Remarks:
Altitude:
(Current/Filed)
5,500ft
Speed:
(Current/Filed)
150kts
Departed: 05-Oct-21 03:36 PM
Arrived: 05-Oct-21 04:24 PM
Distance/Time
Traveled:
95nm/0:48
Distance/Time
To Go:
Arrived

Flight Plot

Page will automatically refresh every two minutes.


Map Options




Map Legend


Flown Route
Filed Route
Departure Airport
Arrival Airport
Navaid (VOR, NDB)
Fix

Horizontal Profiles

Position Reports

Time Latitude Longitude Heading Altitude Ground
Speed
05-Oct-21 15:06 33.933808 -118.399133 22 119ft 0kts
05-Oct-21 15:07 33.933808 -118.399133 22 119ft 0kts
05-Oct-21 15:08 33.933808 -118.399133 22 119ft 0kts
05-Oct-21 15:09 33.933808 -118.399133 22 119ft 0kts
05-Oct-21 15:10 33.933808 -118.399133 22 119ft 0kts
05-Oct-21 15:11 33.933808 -118.399133 22 119ft 0kts
05-Oct-21 15:12 33.933808 -118.399133 22 119ft 0kts
05-Oct-21 15:13 33.933808 -118.399133 22 119ft 0kts
05-Oct-21 15:14 33.933808 -118.399133 22 119ft 0kts
05-Oct-21 15:15 33.933808 -118.399133 22 119ft 0kts
05-Oct-21 15:16 33.933808 -118.399133 22 119ft 0kts
05-Oct-21 15:17 33.933808 -118.399133 22 119ft 0kts
05-Oct-21 15:18 33.933808 -118.399133 22 119ft 0kts
05-Oct-21 15:19 33.933808 -118.399133 22 119ft 0kts
05-Oct-21 15:20 33.933808 -118.399133 22 119ft 0kts
05-Oct-21 15:21 33.933808 -118.399133 22 119ft 0kts
05-Oct-21 15:22 33.933808 -118.399133 22 119ft 0kts
05-Oct-21 15:29 33.933808 -118.399133 22 119ft 0kts
05-Oct-21 15:30 33.933808 -118.399133 22 119ft 0kts
05-Oct-21 15:31 33.933808 -118.399133 22 119ft 0kts
05-Oct-21 15:32 33.933808 -118.399133 22 119ft 0kts
05-Oct-21 15:33 33.933808 -118.399133 22 119ft 0kts
05-Oct-21 15:34 33.934625 -118.397752 83 119ft 34kts
05-Oct-21 15:35 33.935632 -118.387898 87 119ft 42kts
05-Oct-21 15:36 33.936465 -118.382779 354 119ft 0kts
05-Oct-21 15:37 33.936759 -118.388992 264 122ft 75kts
05-Oct-21 15:38 33.933077 -118.417189 254 957ft 94kts
05-Oct-21 15:39 33.912123 -118.428175 169 1922ft 111kts
05-Oct-21 15:40 33.880253 -118.417292 160 2312ft 128kts
05-Oct-21 15:41 33.852097 -118.388529 131 2552ft 136kts
05-Oct-21 15:42 33.829901 -118.350613 126 3125ft 142kts
05-Oct-21 15:43 33.807646 -118.309277 118 3267ft 155kts
05-Oct-21 15:44 33.787316 -118.264849 118 3390ft 150kts
05-Oct-21 15:45 33.764905 -118.221773 124 3464ft 151kts
05-Oct-21 15:46 33.746062 -118.186071 123 3985ft 139kts
05-Oct-21 15:47 33.724754 -118.146510 124 4383ft 143kts
05-Oct-21 15:48 33.706532 -118.109446 121 4688ft 144kts
05-Oct-21 15:49 33.684631 -118.070092 132 5009ft 142kts
05-Oct-21 15:50 33.660810 -118.034249 129 5439ft 141kts
05-Oct-21 15:51 33.634636 -117.999283 131 5647ft 145kts
05-Oct-21 15:52 33.608628 -117.959141 127 5585ft 160kts
05-Oct-21 15:53 33.585601 -117.914184 123 5533ft 156kts
05-Oct-21 15:54 33.560453 -117.872787 128 5655ft 153kts
05-Oct-21 15:55 33.533989 -117.832038 128 5641ft 156kts
05-Oct-21 15:56 33.507178 -117.790832 128 5586ft 158kts
05-Oct-21 15:57 33.480616 -117.749910 128 5623ft 156kts
05-Oct-21 15:58 33.453969 -117.708778 128 5631ft 155kts
05-Oct-21 15:59 33.427358 -117.667624 128 5632ft 156kts
05-Oct-21 16:00 33.400319 -117.631453 136 5664ft 155kts
05-Oct-21 16:01 33.368841 -117.595801 137 5684ft 156kts
05-Oct-21 16:02 33.338484 -117.561571 137 5866ft 151kts
05-Oct-21 16:03 33.306409 -117.525487 137 5698ft 156kts
05-Oct-21 16:04 33.274520 -117.489551 137 5644ft 159kts
05-Oct-21 16:05 33.240265 -117.455146 142 5326ft 166kts
05-Oct-21 16:06 33.204343 -117.421145 142 4687ft 165kts
05-Oct-21 16:07 33.168381 -117.386727 142 3781ft 165kts
05-Oct-21 16:08 33.133258 -117.355410 151 3246ft 159kts
05-Oct-21 16:09 33.097282 -117.333188 155 3605ft 142kts
05-Oct-21 16:10 33.061871 -117.315829 164 3672ft 151kts
05-Oct-21 16:11 33.025414 -117.304843 168 3273ft 158kts
05-Oct-21 16:12 32.985386 -117.306833 178 3389ft 140kts
05-Oct-21 16:13 32.947211 -117.290195 155 3434ft 157kts
05-Oct-21 16:14 32.906921 -117.267201 158 3263ft 159kts
05-Oct-21 16:15 32.866825 -117.246510 158 3413ft 154kts
05-Oct-21 16:16 32.827013 -117.226105 158 3350ft 158kts
05-Oct-21 16:17 32.786556 -117.214118 191 2039ft 153kts
05-Oct-21 16:18 32.756309 -117.199108 109 1102ft 134kts
05-Oct-21 16:19 32.752047 -117.163055 95 1179ft 109kts
05-Oct-21 16:20 32.737339 -117.138796 176 1275ft 99kts
05-Oct-21 16:21 32.726094 -117.159528 285 458ft 87kts
05-Oct-21 16:22 32.732380 -117.184914 280 18ft 54kts
05-Oct-21 16:23 32.734047 -117.187969 43 15ft 0kts
05-Oct-21 16:24 32.732925 -117.178886 70 17ft 13kts

Navigation Log

Ident Type
Flight plan parsing failed, navigation log unavailable